Time;durP1;ratioP1;P1;durP2;ratioP2;P2;SDS_P1;SDS_P2;PMS_P1;PMS_P2;Temp;Humidity;BMP_temperature;BMP_pressure;BME280_temperature;BME280_humidity;BME280_pressure;Samples;Min_cycle;Max_cycle;Signal;HPM_P1;HPM_P2
2021/05/31 00:00:35;;;;;;;8.48;6.07;;;;;;;10.19;70.56;100107.47;5012580;28;20065;-60
2021/05/31 00:03:00;;;;;;;11.82;6.32;;;;;;;10.22;70.14;100101.66;5013099;28;20494;-60
2021/05/31 00:05:25;;;;;;;9.57;6.00;;;;;;;10.19;69.82;100102.91;5012615;28;20052;-61
2021/05/31 00:07:54;;;;;;;8.85;5.53;;;;;;;10.14;70.65;100095.53;5012997;28;20040;-60
2021/05/31 00:10:19;;;;;;;9.40;5.75;;;;;;;10.28;69.81;100095.44;5012494;28;20024;-60
2021/05/31 00:12:45;;;;;;;10.90;5.90;;;;;;;10.25;70.24;100095.84;5011744;28;20384;-60
2021/05/31 00:15:10;;;;;;;9.60;5.88;;;;;;;10.32;69.73;100093.97;5012336;28;20017;-60
2021/05/31 00:17:36;;;;;;;7.97;5.55;;;;;;;10.31;69.72;100084.31;5012811;28;20065;-60
2021/05/31 00:20:03;;;;;;;10.88;5.32;;;;;;;10.27;69.65;100083.06;5012351;28;20032;-60
2021/05/31 00:22:28;;;;;;;10.73;5.93;;;;;;;10.20;70.17;100090.34;5012725;28;20402;-60
2021/05/31 00:24:54;;;;;;;7.72;5.70;;;;;;;10.20;70.26;100082.28;5012686;28;20030;-60
2021/05/31 00:27:19;;;;;;;8.63;5.50;;;;;;;10.10;70.89;100072.88;5012237;28;20038;-61
2021/05/31 00:29:45;;;;;;;13.68;5.90;;;;;;;10.05;70.90;100080.75;5012923;28;20133;-60
2021/05/31 00:32:10;;;;;;;12.27;5.95;;;;;;;9.95;70.65;100077.75;5012210;28;20065;-60
2021/05/31 00:34:36;;;;;;;11.75;6.32;;;;;;;9.98;70.64;100077.31;5012800;28;20422;-60
2021/05/31 00:37:02;;;;;;;9.02;5.63;;;;;;;9.98;70.63;100074.63;5011055;28;20092;-60
2021/05/31 00:39:28;;;;;;;9.52;5.72;;;;;;;10.10;70.40;100070.19;5011381;28;20075;-60
2021/05/31 00:41:53;;;;;;;8.23;5.80;;;;;;;10.09;70.49;100065.91;5011938;28;20041;-60
2021/05/31 00:44:20;;;;;;;10.55;6.28;;;;;;;10.04;70.88;100073.78;5011655;28;20026;-60
2021/05/31 00:46:46;;;;;;;10.80;6.55;;;;;;;9.97;71.37;100066.81;5012230;28;20034;-60
2021/05/31 00:49:12;;;;;;;9.98;6.05;;;;;;;9.88;71.39;100074.28;5013514;28;20033;-60
2021/05/31 00:51:37;;;;;;;12.02;6.07;;;;;;;9.90;71.80;100067.69;5015886;28;20042;-60
2021/05/31 00:54:03;;;;;;;8.20;6.22;;;;;;;9.90;71.42;100061.50;5016356;28;20037;-60
2021/05/31 00:56:28;;;;;;;11.18;6.35;;;;;;;9.77;72.03;100066.97;5016180;28;20391;-60
2021/05/31 00:58:54;;;;;;;10.90;6.05;;;;;;;9.68;72.14;100069.06;5014911;28;20042;-60
2021/05/31 01:01:21;;;;;;;10.00;5.68;;;;;;;9.58;72.69;100064.19;5016007;28;20049;-60
2021/05/31 01:03:46;;;;;;;11.40;6.22;;;;;;;9.60;72.77;100069.34;5014967;28;20029;-61
2021/05/31 01:06:13;;;;;;;10.13;6.05;;;;;;;9.60;73.50;100072.00;5015827;28;20038;-60
2021/05/31 01:08:49;;;;;;;10.55;6.40;;;;;;;9.56;73.65;100071.63;5015006;28;20491;-61
2021/05/31 01:11:22;;;;;;;9.38;5.70;;;;;;;9.59;72.64;100065.84;5014117;28;20129;-60
2021/05/31 01:13:59;;;;;;;10.60;6.75;;;;;;;9.65;72.24;100064.97;5015166;28;20125;-60
2021/05/31 01:16:30;;;;;;;12.13;7.07;;;;;;;9.68;72.59;100069.91;5015538;28;20121;-60
2021/05/31 01:18:56;;;;;;;;;;;;;;;9.65;72.11;100064.16;5015173;28;20037;-60
2021/05/31 01:21:36;;;;;;;10.88;6.70;;;;;;;9.63;72.29;100075.06;5014138;28;19921;-59
2021/05/31 01:24:35;;;;;;;11.60;6.82;;;;;;;9.47;73.29;100076.41;5016044;28;20141;-60
2021/05/31 01:27:09;;;;;;;9.88;6.10;;;;;;;9.34;72.91;100067.66;5013962;28;20041;-60
2021/05/31 01:29:34;;;;;;;9.07;6.15;;;;;;;9.14;73.96;100063.22;5014648;28;20506;-60
2021/05/31 01:32:03;;;;;;;14.55;6.45;;;;;;;9.11;74.41;100066.31;5015242;28;20050;-61
2021/05/31 01:34:32;;;;;;;9.23;6.32;;;;;;;9.19;74.39;100063.38;5015775;28;20080;-60
2021/05/31 01:37:07;;;;;;;8.68;6.32;;;;;;;9.25;74.40;100067.88;4998239;28;20037;-60
2021/05/31 01:39:34;;;;;;;10.70;6.60;;;;;;;9.29;74.55;100071.78;5014329;28;20468;-60
2021/05/31 01:42:00;;;;;;;9.27;6.15;;;;;;;9.29;74.31;100074.44;5013951;28;20076;-60
2021/05/31 01:44:26;;;;;;;8.88;6.65;;;;;;;9.27;74.52;100060.47;5015553;28;20368;-60
2021/05/31 01:46:51;;;;;;;13.00;6.65;;;;;;;9.32;74.22;100064.34;5013941;28;20034;-60
2021/05/31 01:49:17;;;;;;;12.68;6.82;;;;;;;9.22;74.23;100062.94;5015621;28;20451;-60
2021/05/31 01:51:43;;;;;;;12.18;7.13;;;;;;;9.15;74.61;100064.03;5014800;28;20502;-60
2021/05/31 01:54:09;;;;;;;10.50;6.57;;;;;;;9.01;74.43;100063.25;5014098;28;20030;-60
2021/05/31 01:56:35;;;;;;;11.48;6.45;;;;;;;8.91;75.09;100057.53;4997180;28;20373;-60
2021/05/31 01:59:00;;;;;;;10.10;6.50;;;;;;;8.76;76.11;100061.28;5013863;28;20061;-61
2021/05/31 02:01:26;;;;;;;12.05;7.47;;;;;;;8.68;76.56;100058.81;5013798;28;20046;-60
2021/05/31 02:03:51;;;;;;;11.02;6.97;;;;;;;8.68;78.81;100056.16;5013892;28;20022;-60
2021/05/31 02:06:17;;;;;;;11.27;6.82;;;;;;;8.60;76.93;100051.03;5013471;28;20034;-60
2021/05/31 02:08:42;;;;;;;14.73;7.40;;;;;;;8.58;77.63;100059.25;5015076;28;20026;-60
2021/05/31 02:11:15;;;;;;;10.80;6.63;;;;;;;8.60;77.05;100059.06;5014261;28;20597;-60
2021/05/31 02:13:41;;;;;;;11.38;6.50;;;;;;;8.64;77.39;100057.63;5013838;28;20104;-60
2021/05/31 02:16:13;;;;;;;9.32;6.95;;;;;;;8.61;76.62;100052.66;5013176;28;20041;-60
2021/05/31 02:18:41;;;;;;;11.82;7.40;;;;;;;8.60;76.64;100049.19;5013648;28;20034;-60
2021/05/31 02:21:08;;;;;;;13.30;7.57;;;;;;;8.70;75.98;100050.59;5014381;28;20136;-61
2021/05/31 02:23:37;;;;;;;13.00;7.85;;;;;;;8.68;76.53;100058.00;5013439;28;20022;-61
2021/05/31 02:26:03;;;;;;;12.90;7.53;;;;;;;8.74;77.99;100060.69;5012943;28;20054;-60
2021/05/31 02:28:28;;;;;;;12.23;7.50;;;;;;;8.66;76.27;100060.06;4997145;28;20026;-60
2021/05/31 02:30:54;;;;;;;14.68;7.72;;;;;;;8.61;77.13;100060.69;4996530;28;20077;-61
2021/05/31 02:33:22;;;;;;;13.10;7.72;;;;;;;8.61;76.41;100058.00;4997026;28;20108;-60
2021/05/31 02:35:48;;;;;;;12.80;8.48;;;;;;;8.63;76.89;100062.13;5014150;28;20057;-60
2021/05/31 02:38:13;;;;;;;16.13;8.13;;;;;;;8.70;76.60;100062.13;5014368;28;20383;-60
2021/05/31 02:40:39;;;;;;;13.60;8.07;;;;;;;8.72;76.25;100060.06;5012307;28;20488;-60
2021/05/31 02:43:06;;;;;;;14.73;8.40;;;;;;;8.67;76.14;100061.72;5014479;28;20038;-60
2021/05/31 02:45:31;;;;;;;14.93;8.73;;;;;;;8.78;76.26;100061.88;5013933;28;20044;-60
2021/05/31 02:47:58;;;;;;;14.18;8.40;;;;;;;8.82;75.86;100071.13;5014270;28;20026;-60
2021/05/31 02:50:23;;;;;;;13.63;7.97;;;;;;;8.73;75.84;100067.03;5013855;28;20144;-60
2021/05/31 02:52:49;;;;;;;12.35;7.30;;;;;;;8.62;76.41;100065.84;5014131;28;20135;-60
2021/05/31 02:55:16;;;;;;;11.98;8.07;;;;;;;8.56;76.70;100064.00;5013981;28;20034;-60
2021/05/31 02:57:42;;;;;;;9.68;7.07;;;;;;;8.46;76.43;100066.25;5012810;28;20022;-60
2021/05/31 03:00:12;;;;;;;14.73;7.78;;;;;;;8.40;77.62;100067.09;5013564;28;20065;-60
2021/05/31 03:02:37;;;;;;;14.27;8.45;;;;;;;8.42;77.77;100057.84;5014039;28;20104;-60
2021/05/31 03:05:04;;;;;;;16.50;9.25;;;;;;;8.52;78.13;100061.97;5013571;28;20528;-60
2021/05/31 03:07:29;;;;;;;13.68;8.02;;;;;;;8.43;77.75;100056.00;5013941;28;20334;-60
2021/05/31 03:09:55;;;;;;;12.88;8.18;;;;;;;8.39;77.09;100065.44;5014090;28;20441;-60
2021/05/31 03:12:21;;;;;;;8.43;6.30;;;;;;;8.43;79.00;100074.69;5013455;28;20493;-60
2021/05/31 03:14:47;;;;;;;11.25;7.55;;;;;;;8.40;77.89;100067.91;5013980;28;20551;-60
2021/05/31 03:17:12;;;;;;;12.55;8.25;;;;;;;8.19;78.55;100073.47;5013345;28;20519;-61
2021/05/31 03:19:37;;;;;;;16.00;8.95;;;;;;;8.40;78.23;100067.09;5013712;28;20026;-61
2021/05/31 03:22:03;;;;;;;14.38;8.80;;;;;;;8.66;77.43;100065.41;5013273;28;20044;-60
2021/05/31 03:24:28;;;;;;;12.30;7.80;;;;;;;8.71;76.45;100069.13;5013624;28;20018;-60
2021/05/31 03:26:54;;;;;;;16.83;8.48;;;;;;;8.59;77.66;100071.59;5013141;28;20034;-60
2021/05/31 03:29:19;;;;;;;14.30;7.55;;;;;;;8.45;78.27;100066.50;5013152;28;20084;-60
2021/05/31 03:31:45;;;;;;;17.10;8.43;;;;;;;8.39;79.12;100068.97;5010977;28;20037;-60
2021/05/31 03:34:10;;;;;;;12.75;7.90;;;;;;;8.51;79.38;100073.66;5013482;28;20026;-60
2021/05/31 03:36:36;;;;;;;10.43;6.60;;;;;;;8.13;76.22;100068.94;5013289;28;20030;-60
2021/05/31 03:39:06;;;;;;;10.52;6.78;;;;;;;7.98;77.26;100069.97;5013630;28;20060;-60
2021/05/31 03:41:31;;;;;;;12.00;7.32;;;;;;;7.93;79.50;100067.09;5013197;28;20038;-60
2021/05/31 03:43:56;;;;;;;10.98;7.75;;;;;;;8.35;78.31;100070.38;5012013;28;20507;-60
2021/05/31 03:46:22;;;;;;;13.13;8.07;;;;;;;8.41;79.62;100074.06;5013297;28;20038;-60
2021/05/31 03:48:47;;;;;;;13.55;7.15;;;;;;;8.29;77.02;100065.88;5013379;28;20029;-60
2021/05/31 03:51:15;;;;;;;12.35;6.63;;;;;;;8.24;77.75;100070.16;5012780;28;20038;-60
2021/05/31 03:53:40;;;;;;;12.65;7.78;;;;;;;8.44;79.03;100063.00;5012110;28;20037;-60
2021/05/31 03:56:06;;;;;;;13.85;7.65;;;;;;;8.60;77.98;100067.06;5012943;28;20030;-59
2021/05/31 03:58:32;;;;;;;11.93;8.00;;;;;;;8.68;77.51;100080.19;5011834;28;20042;-61
2021/05/31 04:00:58;;;;;;;16.73;7.70;;;;;;;8.76;77.38;100081.81;5012722;28;20392;-59
2021/05/31 04:03:23;;;;;;;15.68;7.72;;;;;;;8.78;77.35;100075.25;5013056;28;20057;-59
2021/05/31 04:06:03;;;;;;;12.25;7.60;;;;;;;9.02;76.48;100083.63;5011557;28;20026;-59
2021/05/31 04:13:58;;;;;;;11.15;8.02;;;;;;;9.15;75.13;100090.75;5012934;28;20036;-59
2021/05/31 04:16:24;;;;;;;12.02;8.13;;;;;;;8.98;76.71;100087.72;5012621;28;20034;-59
2021/05/31 04:18:49;;;;;;;13.70;8.32;;;;;;;9.26;76.16;100088.25;5012804;28;20088;-59
2021/05/31 04:21:15;;;;;;;14.13;8.40;;;;;;;9.50;74.71;100083.19;5012479;28;20069;-61
2021/05/31 04:23:40;;;;;;;14.35;6.70;;;;;;;9.50;73.76;100083.19;5012296;28;20096;-59
2021/05/31 04:26:05;;;;;;;9.60;6.88;;;;;;;9.61;72.80;100087.03;5012421;28;20420;-59
2021/05/31 04:28:31;;;;;;;12.35;7.20;;;;;;;9.87;72.03;100078.03;5012753;28;20072;-59
2021/05/31 04:30:56;;;;;;;14.00;7.10;;;;;;;10.42;70.09;100078.22;5012270;28;20034;-59
2021/05/31 04:33:22;;;;;;;12.88;7.00;;;;;;;10.55;69.74;100090.66;5012787;28;20026;-62
2021/05/31 04:35:47;;;;;;;16.02;7.40;;;;;;;10.71;69.24;100083.94;5012123;28;20042;-61
2021/05/31 04:38:13;;;;;;;11.38;7.53;;;;;;;10.76;68.59;100084.88;5012745;28;20021;-61
2021/05/31 04:40:38;;;;;;;10.05;7.15;;;;;;;10.92;68.61;100085.34;5012343;28;20026;-60
2021/05/31 04:43:04;;;;;;;15.05;7.20;;;;;;;11.54;66.55;100083.31;5012590;28;20488;-59
2021/05/31 04:45:29;;;;;;;10.90;7.22;;;;;;;11.69;65.38;100090.97;5012434;28;20044;-59
2021/05/31 04:47:55;;;;;;;11.15;6.90;;;;;;;11.86;64.47;100085.75;5012813;28;20033;-59
2021/05/31 04:50:20;;;;;;;9.05;6.28;;;;;;;15.54;52.30;100092.44;5010974;28;20069;-59
2021/05/31 04:52:46;;;;;;;9.65;5.75;;;;;;;15.02;53.24;100089.41;5012513;28;20049;-59
2021/05/31 04:55:18;;;;;;;9.57;5.95;;;;;;;14.57;55.30;100093.13;5012582;28;20030;-60
2021/05/31 04:57:45;;;;;;;11.13;6.03;;;;;;;16.90;48.37;100097.66;5012804;28;20077;-60
2021/05/31 05:00:11;;;;;;;8.90;5.97;;;;;;;15.53;52.50;100100.81;5012402;28;20065;-60
2021/05/31 05:02:36;;;;;;;10.25;6.40;;;;;;;17.68;46.14;100096.84;5012715;28;20475;-60
2021/05/31 05:05:01;;;;;;;9.30;5.95;;;;;;;20.14;39.77;100107.03;5012219;28;20046;-60
2021/05/31 05:07:27;;;;;;;10.95;6.78;;;;;;;20.40;38.97;100100.28;5012839;28;20077;-60
2021/05/31 05:09:52;;;;;;;8.82;5.75;;;;;;;20.64;38.78;100094.06;5012554;28;20022;-60
2021/05/31 05:12:18;;;;;;;9.95;5.90;;;;;;;20.85;38.65;100098.22;5011645;28;20042;-60
2021/05/31 05:14:43;;;;;;;10.55;5.85;;;;;;;21.35;37.24;100102.53;5012428;28;20468;-60
2021/05/31 05:17:11;;;;;;;7.65;5.38;;;;;;;21.42;37.02;100109.28;5012379;28;20038;-63
2021/05/31 05:19:37;;;;;;;11.05;5.78;;;;;;;21.73;36.17;100098.72;5012671;28;20030;-60
2021/05/31 05:22:03;;;;;;;9.07;6.38;;;;;;;21.52;36.73;100102.88;5011354;28;20115;-61
2021/05/31 05:24:28;;;;;;;9.00;6.22;;;;;;;21.49;36.75;100098.00;4995282;28;20025;-61
2021/05/31 05:26:54;;;;;;;9.65;6.55;;;;;;;21.37;37.42;100095.69;5012225;28;20042;-61
2021/05/31 05:29:20;;;;;;;10.23;5.78;;;;;;;19.81;40.66;100099.38;5012729;28;20022;-61
2021/05/31 05:31:46;;;;;;;9.50;5.75;;;;;;;18.96;42.88;100099.50;5012102;28;20056;-61
2021/05/31 05:34:13;;;;;;;9.63;5.80;;;;;;;16.93;48.57;100091.69;5012519;28;20486;-61
2021/05/31 05:49:43;;;;;;;11.95;7.10;;;;;;;13.24;60.67;100088.09;5015677;28;20100;-60
2021/05/31 05:52:08;;;;;;;11.52;6.70;;;;;;;13.27;59.29;100088.44;5015023;28;20403;-60
2021/05/31 05:54:34;;;;;;;13.77;7.38;;;;;;;13.81;56.80;100085.41;5015569;28;20049;-60
2021/05/31 05:56:59;;;;;;;13.57;7.18;;;;;;;13.77;57.43;100085.06;5015093;28;20469;-60
2021/05/31 05:59:25;;;;;;;11.55;7.30;;;;;;;14.48;55.72;100083.78;5015096;28;20507;-60
2021/05/31 06:01:53;;;;;;;13.50;6.90;;;;;;;16.26;49.79;100086.91;5014926;28;20096;-60
2021/05/31 06:04:19;;;;;;;11.63;6.72;;;;;;;16.75;48.98;100078.59;5015278;28;20037;-60
2021/05/31 06:06:45;;;;;;;13.70;7.20;;;;;;;20.16;40.80;100089.31;5014900;28;20033;-60
2021/05/31 06:09:15;;;;;;;14.65;7.40;;;;;;;21.96;36.49;100085.28;5015109;28;20056;-61
2021/05/31 06:11:41;;;;;;;17.58;6.97;;;;;;;23.20;34.12;100095.66;5014726;28;20030;-61
2021/05/31 06:14:07;;;;;;;27.13;7.10;;;;;;;23.29;34.57;100107.50;5013856;28;20617;-61
2021/05/31 06:16:33;;;;;;;17.67;6.70;;;;;;;24.12;33.04;100099.06;5013481;28;20117;-61
2021/05/31 06:18:58;;;;;;;20.65;7.63;;;;;;;24.19;33.02;100102.19;5014869;28;20057;-61
2021/05/31 06:21:23;;;;;;;21.08;7.25;;;;;;;23.92;33.15;100100.38;5014590;28;20041;-60
2021/05/31 06:23:49;;;;;;;33.05;7.95;;;;;;;23.33;35.26;100103.03;5014819;28;20026;-61
2021/05/31 06:26:15;;;;;;;34.25;7.82;;;;;;;24.93;32.17;100103.53;5014322;28;20085;-61
2021/05/31 06:28:41;;;;;;;41.63;8.27;;;;;;;24.57;32.11;100093.56;5014858;28;20022;-61
2021/05/31 06:31:06;;;;;;;31.70;8.05;;;;;;;25.26;30.97;100097.69;5013724;28;20377;-61
2021/05/31 06:33:32;;;;;;;31.85;7.70;;;;;;;24.81;31.90;100090.44;5014892;28;20030;-61
2021/05/31 06:35:59;;;;;;;32.83;8.43;;;;;;;25.81;30.01;100097.13;5014446;28;20038;-61
2021/05/31 06:38:24;;;;;;;47.45;8.38;;;;;;;25.80;30.35;100093.53;5014723;28;20428;-61
2021/05/31 06:40:50;;;;;;;41.03;8.68;;;;;;;25.28;30.82;100089.94;5014368;28;20101;-61
2021/05/31 06:43:15;;;;;;;44.40;8.65;;;;;;;25.70;31.01;100095.81;5014632;28;20339;-61
2021/05/31 06:45:40;;;;;;;30.85;7.50;;;;;;;25.86;30.32;100090.66;5012749;28;20041;-61
2021/05/31 06:48:06;;;;;;;39.92;8.13;;;;;;;25.96;29.49;100088.41;5014103;28;20080;-61
2021/05/31 06:50:33;;;;;;;39.08;7.78;;;;;;;26.26;28.80;100091.28;5014269;28;20029;-61
2021/05/31 06:52:59;;;;;;;37.88;7.88;;;;;;;26.42;29.24;100084.09;5014492;28;20029;-61
2021/05/31 06:55:25;;;;;;;37.40;8.32;;;;;;;26.99;28.68;100082.13;5014187;28;20049;-61
2021/05/31 06:57:51;;;;;;;35.97;8.25;;;;;;;26.26;29.39;100080.28;5014398;28;20095;-62
2021/05/31 07:00:18;;;;;;;43.33;8.82;;;;;;;26.70;29.24;100075.47;5014068;28;20030;-61
2021/05/31 07:02:44;;;;;;;37.17;8.77;;;;;;;27.04;28.84;100082.75;5014255;28;20029;-60
2021/05/31 07:05:09;;;;;;;52.92;9.38;;;;;;;27.58;28.02;100084.84;5014347;28;20022;-61
2021/05/31 07:07:36;;;;;;;46.15;9.38;;;;;;;27.44;27.75;100078.81;5014554;28;20603;-61
2021/05/31 07:10:01;;;;;;;71.40;9.15;;;;;;;26.93;28.66;100080.69;5013857;28;20033;-62
2021/05/31 07:12:27;;;;;;;61.42;9.25;;;;;;;26.12;30.17;100077.72;5014285;28;20387;-62
2021/05/31 07:14:53;;;;;;;52.78;9.20;;;;;;;27.61;28.26;100084.19;5014273;28;20022;-61
2021/05/31 07:17:19;;;;;;;44.25;8.95;;;;;;;27.00;28.35;100081.78;5013775;28;20038;-62
2021/05/31 07:19:45;;;;;;;44.45;8.75;;;;;;;28.11;26.57;100083.28;5014337;28;20075;-61
2021/05/31 07:22:13;;;;;;;26.27;7.85;;;;;;;26.65;29.09;100083.91;5013695;28;20563;-61
2021/05/31 07:24:39;;;;;;;32.45;7.32;;;;;;;26.78;29.04;100079.31;5013055;28;20068;-61
2021/05/31 07:27:04;;;;;;;41.78;8.55;;;;;;;27.07;28.42;100075.78;5013674;28;20037;-61
2021/05/31 07:29:30;;;;;;;44.13;7.88;;;;;;;28.13;26.83;100081.00;5013973;28;20361;-61
2021/05/31 07:31:55;;;;;;;35.55;7.78;;;;;;;26.79;28.11;100068.00;5012048;28;20042;-61
2021/05/31 07:34:21;;;;;;;37.35;7.68;;;;;;;26.87;28.66;100071.84;5013997;28;20615;-60
2021/05/31 07:36:46;;;;;;;36.97;7.63;;;;;;;27.63;27.48;100073.66;5012153;28;20496;-60
2021/05/31 07:39:12;;;;;;;37.53;7.88;;;;;;;26.81;28.02;100073.16;5013954;28;20140;-60
2021/05/31 07:41:37;;;;;;;35.25;7.22;;;;;;;27.16;27.63;100061.94;5013314;28;20519;-60
2021/05/31 07:44:03;;;;;;;25.52;6.97;;;;;;;26.49;28.71;100066.31;5013594;28;20506;-60
2021/05/31 07:46:29;;;;;;;38.83;7.05;;;;;;;28.17;26.17;100064.56;5013173;28;20033;-60
2021/05/31 07:48:55;;;;;;;30.40;6.93;;;;;;;27.30;27.68;100052.34;5013457;28;20037;-60
2021/05/31 07:51:21;;;;;;;28.10;7.18;;;;;;;26.58;29.04;100053.34;5013127;28;20038;-60
2021/05/31 07:53:47;;;;;;;28.10;7.20;;;;;;;27.27;27.72;100061.25;5013652;28;20040;-61
2021/05/31 07:56:13;;;;;;;26.98;6.82;;;;;;;27.84;26.68;100053.56;5013164;28;20057;-61
2021/05/31 07:58:40;;;;;;;32.50;6.95;;;;;;;28.14;26.45;100057.78;4995082;28;20484;-61
2021/05/31 08:01:05;;;;;;;29.30;6.40;;;;;;;28.67;25.77;100059.97;5012998;28;20030;-61
2021/05/31 08:03:31;;;;;;;26.88;5.82;;;;;;;27.40;26.73;100050.34;5013670;28;20456;-61
2021/05/31 08:05:57;;;;;;;26.38;6.15;;;;;;;27.65;26.98;100051.25;5011491;28;20041;-61
2021/05/31 08:08:22;;;;;;;36.22;5.82;;;;;;;28.71;25.69;100055.38;5013663;28;20034;-61
2021/05/31 08:10:48;;;;;;;33.53;6.40;;;;;;;28.41;26.02;100052.81;5013169;28;20049;-61
2021/05/31 08:13:13;;;;;;;25.90;5.60;;;;;;;28.63;25.60;100053.53;5013417;28;20064;-60
2021/05/31 08:15:39;;;;;;;27.70;6.13;;;;;;;28.43;25.03;100050.50;5012766;28;20040;-60
2021/05/31 08:18:04;;;;;;;29.67;5.70;;;;;;;26.51;28.29;100042.88;5013432;28;20018;-61
2021/05/31 08:20:30;;;;;;;26.92;6.15;;;;;;;25.83;28.91;100039.91;5012906;28;20034;-60
2021/05/31 08:22:55;;;;;;;35.00;5.15;;;;;;;26.67;26.02;100040.38;5013251;28;20034;-60
2021/05/31 08:25:20;;;;;;;35.15;6.28;;;;;;;27.04;26.25;100035.19;5012817;28;20046;-60
2021/05/31 08:27:46;;;;;;;37.67;5.53;;;;;;;27.20;25.49;100027.97;5013219;28;20025;-60
2021/05/31 08:30:12;;;;;;;34.92;5.97;;;;;;;27.52;26.10;100033.88;5012654;28;20026;-60
2021/05/31 08:32:38;;;;;;;43.35;6.40;;;;;;;27.61;25.21;100029.13;5013236;28;20030;-60
2021/05/31 08:35:03;;;;;;;29.67;5.70;;;;;;;26.38;26.99;100028.19;5012487;28;20079;-60
2021/05/31 08:37:29;;;;;;;20.98;5.57;;;;;;;26.76;26.50;100027.41;5013016;28;20105;-60
2021/05/31 08:39:57;;;;;;;32.10;5.85;;;;;;;26.59;27.86;100031.06;5013162;28;20092;-59
2021/05/31 08:42:22;;;;;;;12.88;4.10;;;;;;;25.60;26.56;100020.88;5012431;28;20038;-60
2021/05/31 08:44:48;;;;;;;14.27;4.55;;;;;;;25.58;26.31;100016.84;5011597;28;20036;-61
2021/05/31 08:47:13;;;;;;;17.95;4.47;;;;;;;26.27;26.12;100010.44;5012751;28;20041;-61
2021/05/31 08:49:39;;;;;;;11.15;3.75;;;;;;;24.86;26.39;100012.72;5013198;28;20097;-61
2021/05/31 08:52:05;;;;;;;9.02;3.67;;;;;;;24.03;27.23;100018.78;5011234;28;20043;-60
2021/05/31 08:54:30;;;;;;;6.75;3.00;;;;;;;22.88;26.83;100018.09;5012820;28;20030;-61
2021/05/31 08:56:56;;;;;;;5.65;3.63;;;;;;;21.94;28.73;100016.56;5012400;28;20064;-60
2021/05/31 08:59:21;;;;;;;5.93;3.60;;;;;;;22.17;28.70;100012.88;5012562;28;20049;-60
2021/05/31 09:01:47;;;;;;;9.82;3.92;;;;;;;23.70;27.93;100021.75;5010969;28;20052;-61
2021/05/31 09:04:13;;;;;;;9.63;3.85;;;;;;;23.00;28.54;100020.34;5012768;28;20087;-61
2021/05/31 09:06:39;;;;;;;9.32;3.90;;;;;;;22.78;28.56;100021.84;5011082;28;20046;-61
2021/05/31 09:09:05;;;;;;;7.55;3.80;;;;;;;22.23;29.78;100015.56;5012796;28;20068;-60
2021/05/31 09:11:30;;;;;;;13.30;4.15;;;;;;;22.20;29.41;100013.44;5015049;28;20045;-60
2021/05/31 09:13:57;;;;;;;7.88;3.83;;;;;;;23.93;27.77;100014.38;5015034;28;20032;-61
2021/05/31 09:16:29;;;;;;;8.77;3.47;;;;;;;23.62;27.41;100009.63;5016048;28;20037;-61
2021/05/31 09:19:03;;;;;;;7.78;3.58;;;;;;;24.20;26.49;100005.19;5016492;28;20109;-60
2021/05/31 09:21:38;;;;;;;5.57;3.47;;;;;;;23.42;27.72;100012.84;5015783;28;20041;-60
2021/05/31 09:24:04;;;;;;;6.00;3.60;;;;;;;23.82;27.30;100005.63;5015138;28;20019;-60
2021/05/31 09:26:30;;;;;;;7.47;3.78;;;;;;;23.53;27.02;100002.47;5015528;28;20154;-60
2021/05/31 09:28:57;;;;;;;9.23;4.82;;;;;;;23.51;27.55;99994.56;5015055;28;20113;-60
2021/05/31 09:31:23;;;;;;;10.48;3.97;;;;;;;22.74;27.87;99992.69;5015596;28;20045;-60
2021/05/31 09:33:59;;;;;;;7.03;3.45;;;;;;;24.57;26.70;99988.63;5014667;28;20025;-60
2021/05/31 09:36:25;;;;;;;9.85;4.18;;;;;;;23.87;26.30;100002.75;5015545;28;20066;-61
2021/05/31 09:38:51;;;;;;;8.68;3.92;;;;;;;22.86;27.83;99987.53;5015918;28;20436;-60
2021/05/31 09:41:30;;;;;;;9.13;4.03;;;;;;;22.84;28.19;99989.78;5014453;28;20038;-61
2021/05/31 09:44:14;;;;;;;11.35;3.65;;;;;;;22.99;27.78;100008.59;5016067;28;20431;-60
2021/05/31 09:46:46;;;;;;;9.45;4.07;;;;;;;23.20;27.71;100002.69;5015481;28;20033;-60
2021/05/31 09:49:22;;;;;;;8.85;4.00;;;;;;;23.19;27.24;99990.13;5015530;28;20456;-61
2021/05/31 09:51:50;;;;;;;7.35;3.70;;;;;;;21.60;30.72;99990.38;5015218;28;20403;-61
2021/05/31 09:54:27;;;;;;;7.18;4.18;;;;;;;21.40;30.52;99990.69;5015389;28;20125;-60
2021/05/31 09:56:52;;;;;;;7.55;4.03;;;;;;;22.49;29.55;99975.72;5015057;28;20061;-60
2021/05/31 09:59:18;;;;;;;10.98;3.95;;;;;;;22.71;28.58;99968.72;5014157;28;20034;-60
2021/05/31 10:01:44;;;;;;;13.35;4.10;;;;;;;24.07;27.48;99975.97;5014996;28;20117;-60
2021/05/31 10:06:48;;;;;;;9.13;4.35;;;;;;;23.72;26.57;99975.75;5014916;28;20520;-61
2021/05/31 10:09:13;;;;;;;6.60;3.70;;;;;;;23.77;26.83;99978.38;5014120;28;20041;-61
2021/05/31 10:11:38;;;;;;;6.28;4.00;;;;;;;22.82;28.58;99970.13;5013551;28;20034;-60
2021/05/31 10:14:04;;;;;;;7.93;3.88;;;;;;;23.56;27.90;99960.81;5015156;28;20117;-60
2021/05/31 10:16:29;;;;;;;7.75;3.63;;;;;;;23.68;28.03;99958.31;4997182;28;20037;-61
2021/05/31 10:18:55;;;;;;;9.75;4.20;;;;;;;23.50;26.26;99959.34;4997685;28;20072;-60
2021/05/31 10:21:20;;;;;;;7.25;3.95;;;;;;;22.97;28.92;99949.88;5013109;28;20034;-60
2021/05/31 10:23:46;;;;;;;7.60;4.20;;;;;;;23.34;27.23;99956.97;4996967;28;20388;-61
2021/05/31 10:26:12;;;;;;;7.28;3.90;;;;;;;24.66;26.01;99951.91;5014609;28;20042;-61
2021/05/31 10:28:39;;;;;;;10.38;3.92;;;;;;;22.55;28.26;99960.84;5013615;28;20041;-61
2021/05/31 10:31:07;;;;;;;10.18;3.95;;;;;;;22.73;28.37;99950.91;5013134;28;20042;-60
2021/05/31 10:33:39;;;;;;;9.70;4.18;;;;;;;22.48;28.91;99949.50;5014902;28;20133;-60
2021/05/31 10:36:08;;;;;;;7.85;3.88;;;;;;;22.65;29.22;99953.56;5014514;28;20053;-61
2021/05/31 10:38:34;;;;;;;6.28;3.55;;;;;;;22.55;27.96;99943.66;5014442;28;20370;-60
2021/05/31 10:40:59;;;;;;;8.23;4.15;;;;;;;22.45;28.65;99939.19;5012989;28;20042;-60
2021/05/31 10:43:25;;;;;;;7.97;4.25;;;;;;;22.03;28.89;99943.81;5014611;28;20033;-61
2021/05/31 10:46:03;;;;;;;7.30;3.95;;;;;;;21.61;30.70;99942.88;5014462;28;20037;-61
2021/05/31 10:48:31;;;;;;;10.27;4.30;;;;;;;22.03;29.88;99943.00;5014499;28;20030;-60
2021/05/31 10:50:58;;;;;;;9.43;3.92;;;;;;;21.69;29.53;99936.78;5014298;28;20045;-61
2021/05/31 10:56:00;;;;;;;7.45;3.88;;;;;;;20.96;31.48;99927.25;5014252;28;20034;-61
2021/05/31 10:58:33;;;;;;;13.88;4.35;;;;;;;22.32;29.82;99929.09;5014259;28;20157;-60
2021/05/31 11:01:00;;;;;;;9.20;4.00;;;;;;;22.09;29.70;99920.78;5014154;28;20245;-60
2021/05/31 11:03:27;;;;;;;7.05;4.10;;;;;;;21.45;29.79;99922.44;5013286;28;20073;-60
2021/05/31 11:05:52;;;;;;;6.45;3.97;;;;;;;23.01;27.84;99918.91;5013873;28;20069;-61
2021/05/31 11:08:29;;;;;;;8.50;3.88;;;;;;;23.64;27.59;99905.34;5014403;28;20021;-61
2021/05/31 11:10:59;;;;;;;7.32;4.03;;;;;;;22.43;28.53;99914.09;5013967;28;20113;-60
2021/05/31 11:13:24;;;;;;;;;;;;;;;22.66;28.52;99916.91;5014445;28;20471;-60
2021/05/31 11:16:06;;;;;;;10.80;3.70;;;;;;;22.21;29.64;99914.03;5013707;28;19917;-61
2021/05/31 11:18:45;;;;;;;7.82;4.00;;;;;;;22.47;29.32;99909.66;5014082;28;20345;-61
2021/05/31 11:21:11;;;;;;;8.48;3.95;;;;;;;21.93;30.23;99905.78;5013703;28;20042;-60
2021/05/31 11:23:36;;;;;;;8.15;3.58;;;;;;;21.90;30.11;99906.38;5014069;28;20030;-60
2021/05/31 11:26:02;;;;;;;8.32;4.13;;;;;;;20.98;30.46;99903.22;5013841;28;20041;-60
2021/05/31 11:28:27;;;;;;;7.47;3.80;;;;;;;21.35;30.34;99904.31;5013953;28;20380;-60
2021/05/31 11:30:53;;;;;;;8.85;3.85;;;;;;;21.32;31.39;99896.72;5013422;28;20042;-60
2021/05/31 11:33:18;;;;;;;9.88;4.03;;;;;;;21.23;30.06;99899.31;5013808;28;20025;-60
2021/05/31 11:35:45;;;;;;;7.22;3.40;;;;;;;21.38;30.11;99895.53;5013382;28;20038;-60
2021/05/31 11:38:10;;;;;;;6.72;3.83;;;;;;;21.66;30.20;99890.97;5013508;28;20075;-60
2021/05/31 11:40:40;;;;;;;7.20;3.90;;;;;;;21.38;30.11;99892.81;5013703;28;20038;-60
2021/05/31 11:43:06;;;;;;;7.78;3.78;;;;;;;22.00;29.58;99884.38;5013743;28;20120;-60
2021/05/31 11:45:34;;;;;;;5.97;3.47;;;;;;;22.57;28.33;99887.59;5013253;28;20054;-60